createdAt,value
2019-03-13T00:00:30.943Z,-2.8
2019-03-13T00:01:24.575Z,-2.8
2019-03-13T00:02:11.068Z,-2.8
2019-03-13T00:03:01.122Z,-2.8
2019-03-13T00:03:51.182Z,-2.8
2019-03-13T00:04:40.690Z,-2.8
2019-03-13T00:05:31.305Z,-2.8
2019-03-13T00:06:21.367Z,-2.8
2019-03-13T00:07:11.150Z,-2.9
2019-03-13T00:08:01.484Z,-2.9
2019-03-13T00:08:51.545Z,-2.9
2019-03-13T00:09:41.600Z,-2.9
2019-03-13T00:10:34.155Z,-2.9
2019-03-13T00:11:21.770Z,-2.9
2019-03-13T00:12:11.498Z,-2.9
2019-03-13T00:13:01.837Z,-2.9
2019-03-13T00:13:51.894Z,-2.9
2019-03-13T00:14:41.405Z,-3
2019-03-13T00:15:32.037Z,-3
2019-03-13T00:16:22.081Z,-3
2019-03-13T00:17:11.885Z,-3
2019-03-13T00:18:01.932Z,-3.1
2019-03-13T00:18:52.257Z,-3.1
2019-03-13T00:19:42.326Z,-3.1
2019-03-13T00:20:32.099Z,-3.1
2019-03-13T00:21:22.152Z,-3.1
2019-03-13T00:22:12.501Z,-3.1
2019-03-13T00:23:02.550Z,-3.1
2019-03-13T00:23:52.604Z,-3.1
2019-03-13T00:24:42.669Z,-3.1
2019-03-13T00:25:32.459Z,-3.1
2019-03-13T00:26:22.520Z,-3.1
2019-03-13T00:27:12.576Z,-3.1
2019-03-13T00:28:02.995Z,-3.2
2019-03-13T00:28:52.706Z,-3.2
2019-03-13T00:29:42.766Z,-3.2
2019-03-13T00:30:32.814Z,-3.2
2019-03-13T00:31:22.878Z,-3.3
2019-03-13T00:32:13.214Z,-3.3
2019-03-13T00:33:03.284Z,-3.3
2019-03-13T00:33:53.333Z,-3.3
2019-03-13T00:34:43.383Z,-3.3
2019-03-13T00:35:33.178Z,-3.3
2019-03-13T00:36:23.235Z,-3.3
2019-03-13T00:37:13.563Z,-3.3
2019-03-13T00:38:03.448Z,-3.3
2019-03-13T00:38:53.681Z,-3.3
2019-03-13T00:39:43.485Z,-3.3
2019-03-13T00:40:33.531Z,-3.3
2019-03-13T00:41:23.583Z,-3.4
2019-03-13T00:42:13.918Z,-3.4
2019-03-13T00:43:04.008Z,-3.4
2019-03-13T00:43:53.793Z,-3.4
2019-03-13T00:44:43.820Z,-3.4
2019-03-13T00:45:33.615Z,-3.4
2019-03-13T00:46:23.945Z,-3.4
2019-03-13T00:47:14.008Z,-3.4
2019-03-13T00:48:04.167Z,-3.4
2019-03-13T00:48:54.414Z,-3.4
2019-03-13T00:49:44.460Z,-3.4
2019-03-13T00:50:34.520Z,-3.4
2019-03-13T00:51:24.403Z,-3.4
2019-03-13T00:52:14.457Z,-3.4
2019-03-13T00:53:04.717Z,-3.4
2019-03-13T00:53:54.759Z,-3.4
2019-03-13T00:54:44.538Z,-3.5
2019-03-13T00:55:34.613Z,-3.5
2019-03-13T00:56:24.937Z,-3.5
2019-03-13T00:57:15.003Z,-3.5
2019-03-13T00:58:04.796Z,-3.5
2019-03-13T00:58:54.834Z,-3.5
2019-03-13T00:59:45.177Z,-3.6
2019-03-13T01:00:35.240Z,-3.6
2019-03-13T01:01:25.019Z,-3.6
2019-03-13T01:02:15.357Z,-3.6
2019-03-13T01:03:04.869Z,-3.6
2019-03-13T01:03:55.479Z,-3.6
2019-03-13T01:04:45.543Z,-3.6
2019-03-13T01:05:35.604Z,-3.6
2019-03-13T01:06:25.662Z,-3.6
2019-03-13T01:07:15.452Z,-3.6
2019-03-13T01:08:05.776Z,-3.6
2019-03-13T01:08:55.832Z,-3.6
2019-03-13T01:09:45.621Z,-3.6
2019-03-13T01:10:36.011Z,-3.7
2019-03-13T01:11:28.692Z,-3.7
2019-03-13T01:12:15.524Z,-3.7
2019-03-13T01:13:05.854Z,-3.7
2019-03-13T01:13:56.216Z,-3.7
2019-03-13T01:14:46.241Z,-3.7
2019-03-13T01:21:26.504Z,-3.8
2019-03-13T01:22:16.509Z,-3.8
2019-03-13T01:23:56.906Z,-3.8
2019-03-13T01:24:46.990Z,-3.8
2019-03-13T01:25:36.786Z,-3.8
2019-03-13T01:26:27.081Z,-3.8
2019-03-13T01:27:16.873Z,-3.8
2019-03-13T01:28:07.206Z,-3.8
2019-03-13T01:28:57.259Z,-3.8
2019-03-13T01:29:47.316Z,-3.8
2019-03-13T01:30:37.376Z,-3.9
2019-03-13T01:31:27.160Z,-3.9
2019-03-13T01:32:17.221Z,-3.8
2019-03-13T01:33:07.272Z,-3.9
2019-03-13T01:33:57.618Z,-3.9
2019-03-13T01:34:47.403Z,-3.9
2019-03-13T01:35:37.460Z,-3.9
2019-03-13T01:36:27.520Z,-3.9
2019-03-13T01:37:17.930Z,-3.9
2019-03-13T01:38:07.916Z,-3.9
2019-03-13T01:38:58.005Z,-3.9
2019-03-13T01:39:48.040Z,-3.9
2019-03-13T01:40:37.827Z,-3.9
2019-03-13T01:41:28.170Z,-3.9
2019-03-13T01:42:18.213Z,-3.9
2019-03-13T01:43:08.272Z,-4
2019-03-13T01:43:58.947Z,-4
2019-03-13T01:44:48.117Z,-4.1
2019-03-13T01:45:38.451Z,-4.1
2019-03-13T01:46:27.954Z,-4
2019-03-13T01:47:18.294Z,-4
2019-03-13T01:48:08.624Z,-4.1
2019-03-13T01:48:58.692Z,-4.1
2019-03-13T01:49:48.492Z,-4.1
2019-03-13T01:50:38.535Z,-4.1
2019-03-13T01:51:28.878Z,-4.1
2019-03-13T01:52:18.931Z,-4.1
2019-03-13T01:53:08.997Z,-4.1
2019-03-13T01:53:59.054Z,-4.1
2019-03-13T01:54:49.106Z,-4.1
2019-03-13T01:55:39.205Z,-4.1
2019-03-13T01:56:29.296Z,-4.1
2019-03-13T01:57:19.013Z,-4.1
2019-03-13T01:58:09.345Z,-4.1
2019-03-13T01:58:59.401Z,-4.1
2019-03-13T01:59:49.197Z,-4.1
2019-03-13T02:00:39.529Z,-4.1
2019-03-13T02:01:29.301Z,-4.1
2019-03-13T02:02:19.729Z,-4.1
2019-03-13T02:03:09.435Z,-4.2
2019-03-13T02:03:59.512Z,-4.1
2019-03-13T02:04:49.549Z,-4.2
2019-03-13T02:05:39.330Z,-4.2
2019-03-13T02:06:29.720Z,-4.2
2019-03-13T02:07:19.812Z,-4.2
2019-03-13T02:08:10.074Z,-4.2
2019-03-13T02:09:00.110Z,-4.2
2019-03-13T02:09:50.258Z,-4.2
2019-03-13T02:10:39.972Z,-4.3
2019-03-13T02:11:30.298Z,-4.3
2019-03-13T02:12:20.113Z,-4.3
2019-03-13T02:13:10.418Z,-4.3
2019-03-13T02:14:00.472Z,-4.3
2019-03-13T02:14:50.378Z,-4.3
2019-03-13T02:15:39.770Z,-4.3
2019-03-13T02:16:30.375Z,-4.3
2019-03-13T02:17:20.713Z,-4.3
2019-03-13T02:18:10.590Z,-4.3
2019-03-13T02:19:00.280Z,-4.3
2019-03-13T02:19:51.447Z,-4.3
2019-03-13T02:20:40.963Z,-4.3
2019-03-13T02:21:31.012Z,-4.3
2019-03-13T02:22:21.085Z,-4.3
2019-03-13T02:23:10.875Z,-4.3
2019-03-13T02:24:01.000Z,-4.3
2019-03-13T02:24:54.726Z,-4.3
2019-03-13T02:25:41.032Z,-4.3
2019-03-13T02:26:31.388Z,-4.3
2019-03-13T02:27:21.165Z,-4.4
2019-03-13T02:28:11.493Z,-4.4
2019-03-13T02:29:01.278Z,-4.3
2019-03-13T02:29:51.338Z,-4.3
2019-03-13T02:30:41.408Z,-4.3
2019-03-13T02:31:31.890Z,-4.4
2019-03-13T02:32:21.521Z,-4.4
2019-03-13T02:33:11.894Z,-4.4
2019-03-13T02:34:01.655Z,-4.4
2019-03-13T02:34:51.688Z,-4.4
2019-03-13T02:35:42.057Z,-4.4
2019-03-13T02:36:31.814Z,-4.4
2019-03-13T02:37:22.342Z,-4.4
2019-03-13T02:38:12.219Z,-4.4
2019-03-13T02:39:01.990Z,-4.4
2019-03-13T02:39:51.821Z,-4.4
2019-03-13T02:40:42.427Z,-4.4
2019-03-13T02:41:32.454Z,-4.4
2019-03-13T02:42:21.962Z,-4.4
2019-03-13T02:43:12.579Z,-4.4
2019-03-13T02:44:02.668Z,-4.4
2019-03-13T02:44:52.437Z,-4.4
2019-03-13T02:45:42.477Z,-4.4
2019-03-13T02:46:32.814Z,-4.4
2019-03-13T02:47:22.615Z,-4.4
2019-03-13T02:48:12.951Z,-4.4
2019-03-13T02:49:02.998Z,-4.4
2019-03-13T02:49:53.052Z,-4.4
2019-03-13T02:50:43.106Z,-4.4
2019-03-13T02:51:33.175Z,-4.4
2019-03-13T02:52:23.239Z,-4.4
2019-03-13T02:53:13.318Z,-4.4
2019-03-13T02:54:03.078Z,-4.4
2019-03-13T02:54:53.165Z,-4.4
2019-03-13T02:55:43.210Z,-4.4
2019-03-13T02:56:33.252Z,-4.4
2019-03-13T02:57:23.610Z,-4.4
2019-03-13T02:58:13.632Z,-4.4
2019-03-13T02:59:03.709Z,-4.4
2019-03-13T02:59:53.775Z,-4.4
2019-03-13T03:00:43.846Z,-4.4
2019-03-13T03:01:33.963Z,-4.4
2019-03-13T03:02:23.687Z,-4.4
2019-03-13T03:03:14.008Z,-4.4
2019-03-13T03:04:04.076Z,-4.4
2019-03-13T03:07:35.393Z,-4.4
2019-03-13T03:08:25.441Z,-4.4
2019-03-13T03:09:15.526Z,-4.4
2019-03-13T03:10:05.573Z,-4.4
2019-03-13T03:10:55.644Z,-4.4
2019-03-13T03:11:45.693Z,-4.4
2019-03-13T03:12:35.733Z,-4.4
2019-03-13T03:13:25.823Z,-4.4
2019-03-13T03:14:15.861Z,-4.4
2019-03-13T03:15:05.650Z,-4.4
2019-03-13T03:15:55.977Z,-4.4
2019-03-13T03:16:46.039Z,-4.4
2019-03-13T03:17:36.137Z,-4.4
2019-03-13T03:18:26.149Z,-4.4
2019-03-13T03:19:16.227Z,-4.4
2019-03-13T03:20:06.439Z,-4.4
2019-03-13T03:20:56.349Z,-4.4
2019-03-13T03:21:46.388Z,-4.4
2019-03-13T03:22:36.157Z,-4.4
2019-03-13T03:23:26.512Z,-4.4
2019-03-13T03:24:16.567Z,-4.4
2019-03-13T03:25:06.630Z,-4.4
2019-03-13T03:25:56.717Z,-4.4
2019-03-13T03:26:46.898Z,-4.4
2019-03-13T03:27:36.522Z,-4.4
2019-03-13T03:28:26.864Z,-4.4
2019-03-13T03:29:17.062Z,-4.4
2019-03-13T03:30:06.988Z,-4.4
2019-03-13T03:30:56.845Z,-4.4
2019-03-13T03:31:47.132Z,-4.4
2019-03-13T03:32:37.175Z,-4.4
2019-03-13T03:33:27.378Z,-4.5
2019-03-13T03:34:17.377Z,-4.4
2019-03-13T03:35:07.362Z,-4.5
2019-03-13T03:35:57.394Z,-4.4
2019-03-13T03:36:47.187Z,-4.5
2019-03-13T03:37:37.703Z,-4.4
2019-03-13T03:38:27.584Z,-4.5
2019-03-13T03:39:17.656Z,-4.5
2019-03-13T03:40:07.686Z,-4.4
2019-03-13T03:40:57.505Z,-4.4
2019-03-13T03:41:47.979Z,-4.4
2019-03-13T03:42:37.609Z,-4.5
2019-03-13T03:43:41.932Z,-4.4
2019-03-13T03:44:18.179Z,-4.4
2019-03-13T03:45:08.059Z,-4.4
2019-03-13T03:45:58.140Z,-4.4
2019-03-13T03:46:47.898Z,-4.4
2019-03-13T03:47:37.943Z,-4.4
2019-03-13T03:48:28.329Z,-4.4
2019-03-13T03:49:18.113Z,-4.4
2019-03-13T03:50:08.419Z,-4.4
2019-03-13T03:50:58.476Z,-4.4
2019-03-13T03:51:48.505Z,-4.4
2019-03-13T03:52:38.305Z,-4.4
2019-03-13T03:53:28.655Z,-4.4
2019-03-13T03:54:18.691Z,-4.4
2019-03-13T03:55:08.747Z,-4.4
2019-03-13T03:55:58.815Z,-4.4
2019-03-13T03:56:48.900Z,-4.4
2019-03-13T03:57:38.940Z,-4.4
2019-03-13T03:58:31.175Z,-4.4
2019-03-13T03:59:19.078Z,-4.3
2019-03-13T04:00:09.113Z,-4.4
2019-03-13T04:00:59.174Z,-4.3
2019-03-13T04:01:49.278Z,-4.3
2019-03-13T04:02:39.321Z,-4.3
2019-03-13T04:03:29.083Z,-4.3
2019-03-13T04:04:19.408Z,-4.3
2019-03-13T04:05:09.500Z,-4.3
2019-03-13T04:05:59.570Z,-4.3
2019-03-13T04:06:49.298Z,-4.3
2019-03-13T04:07:39.658Z,-4.3
2019-03-13T04:08:29.702Z,-4.3
2019-03-13T04:09:19.773Z,-4.3
2019-03-13T04:10:09.813Z,-4.3
2019-03-13T04:11:00.024Z,-4.3
2019-03-13T04:11:49.657Z,-4.3
2019-03-13T04:12:40.009Z,-4.3
2019-03-13T04:13:29.775Z,-4.3
2019-03-13T04:14:20.142Z,-4.2
2019-03-13T04:15:10.174Z,-4.2
2019-03-13T04:16:00.248Z,-4.2
2019-03-13T04:16:50.297Z,-4.2
2019-03-13T04:17:40.071Z,-4.2
2019-03-13T04:18:30.124Z,-4.2
2019-03-13T04:19:20.472Z,-4.2
2019-03-13T04:20:10.540Z,-4.1
2019-03-13T04:21:00.601Z,-4.1
2019-03-13T04:21:50.644Z,-4.1
2019-03-13T04:22:40.727Z,-4.1
2019-03-13T04:23:30.770Z,-4.1
2019-03-13T04:24:20.589Z,-4.1
2019-03-13T04:25:25.663Z,-4.1
2019-03-13T04:26:00.682Z,-4.1
2019-03-13T04:26:51.056Z,-4.1
2019-03-13T04:27:41.085Z,-4.1
2019-03-13T04:28:31.175Z,-4.1
2019-03-13T04:29:21.249Z,-4.1
2019-03-13T04:30:11.318Z,-4.1
2019-03-13T04:31:01.312Z,-4.1
2019-03-13T04:31:51.376Z,-4.1
2019-03-13T04:32:41.403Z,-4.1
2019-03-13T04:33:31.206Z,-4.1
2019-03-13T04:34:21.535Z,-4.1
2019-03-13T04:35:11.595Z,-4
2019-03-13T04:36:01.664Z,-4
2019-03-13T04:36:51.772Z,-4
2019-03-13T04:37:41.782Z,-4
2019-03-13T04:38:31.836Z,-4
2019-03-13T04:39:21.914Z,-3.9
2019-03-13T04:40:11.692Z,-3.9
2019-03-13T04:41:01.728Z,-3.9
2019-03-13T04:41:52.150Z,-3.9
2019-03-13T04:42:42.120Z,-3.9
2019-03-13T04:43:32.179Z,-3.9
2019-03-13T04:44:22.233Z,-3.9
2019-03-13T04:45:11.746Z,-3.9
2019-03-13T04:46:02.072Z,-3.9
2019-03-13T04:46:52.407Z,-3.9
2019-03-13T04:47:42.204Z,-3.9
2019-03-13T04:48:32.535Z,-3.8
2019-03-13T04:49:22.589Z,-3.9
2019-03-13T04:50:12.640Z,-3.8
2019-03-13T04:51:02.698Z,-3.8
2019-03-13T04:51:52.772Z,-3.8
2019-03-13T04:53:32.620Z,-3.8
2019-03-13T04:57:43.189Z,-3.7
2019-03-13T04:58:33.242Z,-3.7
2019-03-13T04:59:23.304Z,-3.7
2019-03-13T05:00:13.373Z,-3.7
2019-03-13T05:01:03.409Z,-3.7
2019-03-13T05:01:52.924Z,-3.6
2019-03-13T05:02:43.544Z,-3.6
2019-03-13T05:03:33.597Z,-3.6
2019-03-13T05:04:23.658Z,-3.6
2019-03-13T05:05:13.719Z,-3.6
2019-03-13T05:06:03.779Z,-3.6
2019-03-13T05:06:53.836Z,-3.6
2019-03-13T05:07:43.893Z,-3.6
2019-03-13T05:08:46.816Z,-3.5
2019-03-13T05:09:24.013Z,-3.5
2019-03-13T05:10:13.786Z,-3.5
2019-03-13T05:11:04.138Z,-3.5
2019-03-13T05:11:54.184Z,-3.4
2019-03-13T05:12:44.246Z,-3.4
2019-03-13T05:13:34.303Z,-3.4
2019-03-13T05:14:24.092Z,-3.4
2019-03-13T05:15:14.416Z,-3.4
2019-03-13T05:16:04.216Z,-3.4
2019-03-13T05:16:54.541Z,-3.4
2019-03-13T05:17:44.594Z,-3.3
2019-03-13T05:18:34.659Z,-3.3
2019-03-13T05:19:24.805Z,-3.3
2019-03-13T05:20:15.185Z,-3.3
2019-03-13T05:21:04.842Z,-3.3
2019-03-13T05:21:54.891Z,-3.3
2019-03-13T05:22:44.954Z,-3.3
2019-03-13T05:23:35.024Z,-3.2
2019-03-13T05:24:25.071Z,-3.2
2019-03-13T05:25:15.168Z,-3.2
2019-03-13T05:26:05.199Z,-3.1
2019-03-13T05:26:55.249Z,-3.1
2019-03-13T05:27:45.051Z,-3.1
2019-03-13T05:28:35.389Z,-3.1
2019-03-13T05:29:25.439Z,-3.1
2019-03-13T05:30:15.493Z,-3
2019-03-13T05:31:05.562Z,-3
2019-03-13T05:31:55.341Z,-3
2019-03-13T05:32:45.658Z,-2.9
2019-03-13T05:33:35.769Z,-2.9
2019-03-13T05:34:25.543Z,-2.9
2019-03-13T05:35:15.856Z,-2.9
2019-03-13T05:36:05.922Z,-2.8
2019-03-13T05:36:55.963Z,-2.8
2019-03-13T05:37:45.768Z,-2.8
2019-03-13T05:38:36.090Z,-2.8
2019-03-13T05:39:26.179Z,-2.8
2019-03-13T05:40:16.203Z,-2.7
2019-03-13T05:41:06.363Z,-2.6
2019-03-13T05:41:56.308Z,-2.6
2019-03-13T05:42:46.385Z,-2.6
2019-03-13T05:43:36.433Z,-2.6
2019-03-13T05:44:26.499Z,-2.5
2019-03-13T05:45:16.551Z,-2.5
2019-03-13T05:46:06.611Z,-2.4
2019-03-13T05:46:56.662Z,-2.4
2019-03-13T05:47:46.723Z,-2.4
2019-03-13T05:48:36.517Z,-2.3
2019-03-13T05:49:26.862Z,-2.3
2019-03-13T05:50:16.935Z,-2.3
2019-03-13T05:51:06.965Z,-2.2
2019-03-13T05:51:57.068Z,-2.1
2019-03-13T05:52:47.078Z,-2.1
2019-03-13T05:53:37.210Z,-2
2019-03-13T05:54:27.227Z,-1.9
2019-03-13T05:55:17.265Z,-1.8
2019-03-13T05:56:06.762Z,-1.8
2019-03-13T05:56:57.482Z,-1.7
2019-03-13T05:57:47.432Z,-1.6
2019-03-13T05:58:37.517Z,-1.5
2019-03-13T05:59:27.557Z,-1.4
2019-03-13T06:00:17.342Z,-1.3
2019-03-13T06:01:07.665Z,-1.1
2019-03-13T06:01:57.851Z,-0.9
2019-03-13T06:02:49.216Z,-0.6
2019-03-13T06:03:37.855Z,-0.4
2019-03-13T06:05:35.234Z,0.1
2019-03-13T06:06:25.006Z,0.5
2019-03-13T06:07:15.344Z,0.8
2019-03-13T06:08:05.396Z,1.1
2019-03-13T06:08:55.462Z,1.6
2019-03-13T06:09:45.545Z,1.9
2019-03-13T06:10:35.015Z,2.4
2019-03-13T06:11:25.627Z,2.9
2019-03-13T06:12:15.709Z,3.4
2019-03-13T06:13:05.482Z,3.9
2019-03-13T06:13:55.254Z,4.4
2019-03-13T06:14:45.974Z,4.9
2019-03-13T06:15:35.944Z,5.3
2019-03-13T06:16:25.987Z,5.6
2019-03-13T06:17:16.031Z,5.9
2019-03-13T06:18:08.354Z,6.2
2019-03-13T06:18:55.895Z,6.4
2019-03-13T06:19:46.206Z,6.6
2019-03-13T06:20:36.274Z,6.7
2019-03-13T06:21:26.353Z,6.8
2019-03-13T06:22:16.114Z,6.9
2019-03-13T06:23:06.451Z,6.9
2019-03-13T06:23:56.528Z,7
2019-03-13T06:24:46.288Z,7
2019-03-13T06:25:36.659Z,7
2019-03-13T06:26:26.418Z,7.1
2019-03-13T06:27:16.754Z,7.1
2019-03-13T06:28:06.823Z,7.1
2019-03-13T06:28:56.597Z,7.1
2019-03-13T06:29:46.930Z,7.1
2019-03-13T06:30:36.983Z,7.1
2019-03-13T06:31:27.048Z,7.1
2019-03-13T06:32:16.897Z,7.1
2019-03-13T06:33:06.675Z,7.2
2019-03-13T06:33:57.213Z,7.2
2019-03-13T06:34:47.273Z,7.2
2019-03-13T06:35:37.330Z,7.3
2019-03-13T06:36:27.122Z,7.4
2019-03-13T06:37:17.455Z,7.4
2019-03-13T06:38:07.510Z,7.5
2019-03-13T06:38:57.567Z,7.6
2019-03-13T06:39:47.731Z,7.6
2019-03-13T06:40:37.427Z,7.8
2019-03-13T06:41:27.815Z,7.8
2019-03-13T06:42:17.809Z,7.9
2019-03-13T06:43:07.588Z,8.1
2019-03-13T06:43:57.922Z,8.3
2019-03-13T06:44:47.972Z,8.4
2019-03-13T06:45:38.037Z,8.6
2019-03-13T06:46:27.843Z,8.8
2019-03-13T06:47:18.163Z,9.1
2019-03-13T06:48:07.765Z,9.3
2019-03-13T06:48:58.006Z,9.5
2019-03-13T06:49:48.062Z,9.8
2019-03-13T06:50:38.397Z,10
2019-03-13T06:51:28.277Z,10.3
2019-03-13T06:52:18.232Z,10.6
2019-03-13T06:53:08.680Z,10.9
2019-03-13T06:53:58.624Z,11.2
2019-03-13T06:54:48.692Z,11.6
2019-03-13T06:55:38.752Z,11.9
2019-03-13T06:56:28.802Z,12.3
2019-03-13T06:57:18.854Z,12.6
2019-03-13T06:58:08.377Z,13.1
2019-03-13T06:58:58.986Z,13.4
2019-03-13T06:59:49.039Z,13.8
2019-03-13T07:00:38.826Z,14.3
2019-03-13T07:01:28.891Z,14.7
2019-03-13T07:02:19.219Z,15.1
2019-03-13T07:03:09.284Z,15.6
2019-03-13T07:05:34.899Z,16.8
2019-03-13T07:06:24.956Z,17.4
2019-03-13T07:07:15.031Z,17.9
2019-03-13T07:08:05.344Z,16.7
2019-03-13T07:08:55.186Z,6.6
2019-03-13T07:09:45.491Z,21.8
2019-03-13T07:10:35.528Z,45.8
2019-03-13T07:11:25.300Z,47.3
2019-03-13T07:12:15.748Z,47.3
2019-03-13T07:13:05.696Z,44.7
2019-03-13T07:13:55.757Z,43.5
2019-03-13T07:14:45.821Z,42.4
2019-03-13T07:15:37.390Z,41.6
2019-03-13T07:16:25.926Z,41.1
2019-03-13T07:17:15.993Z,40.7
2019-03-13T07:18:06.045Z,40.4
2019-03-13T07:18:56.112Z,40.1
2019-03-13T07:19:46.166Z,39.8
2019-03-13T07:20:36.225Z,39.6
2019-03-13T07:21:26.290Z,39.4
2019-03-13T07:22:16.438Z,39.3
2019-03-13T07:23:06.406Z,39.1
2019-03-13T07:23:56.263Z,38.9
2019-03-13T07:24:46.252Z,38.8
2019-03-13T07:25:36.300Z,38.7
2019-03-13T07:26:26.635Z,38.5
2019-03-13T07:27:16.695Z,38.4
2019-03-13T07:28:06.757Z,43.4
2019-03-13T07:28:56.542Z,47.1
2019-03-13T07:29:46.600Z,54
2019-03-13T07:30:36.390Z,53.7
2019-03-13T07:31:26.717Z,55.1
2019-03-13T07:32:16.869Z,57.5
2019-03-13T07:33:06.840Z,58.4
2019-03-13T07:33:56.350Z,58
2019-03-13T07:34:47.472Z,56.9
2019-03-13T07:35:37.297Z,56.5
2019-03-13T07:36:27.349Z,56.6
2019-03-13T07:37:17.404Z,56.9
2019-03-13T07:38:06.921Z,57.3
2019-03-13T07:38:57.526Z,57.7
2019-03-13T07:39:47.584Z,58
2019-03-13T07:40:37.661Z,58.2
2019-03-13T07:41:27.719Z,58.3
2019-03-13T07:42:17.824Z,58.3
2019-03-13T07:43:07.831Z,58.3
2019-03-13T07:43:57.602Z,58.4
2019-03-13T07:45:37.734Z,58.6
2019-03-13T07:46:28.070Z,58.8
2019-03-13T07:47:17.860Z,58.9
2019-03-13T07:48:08.194Z,59.1
2019-03-13T07:48:57.974Z,59.1
2019-03-13T07:49:48.309Z,59.2
2019-03-13T07:50:38.108Z,59.3
2019-03-13T07:51:28.413Z,59.4
2019-03-13T07:52:18.495Z,59.5
2019-03-13T07:53:08.546Z,59.6
2019-03-13T07:53:58.594Z,59.7
2019-03-13T07:54:48.663Z,59.8
2019-03-13T07:55:38.725Z,59.8
2019-03-13T07:56:28.778Z,59.9
2019-03-13T07:57:18.844Z,60.1
2019-03-13T07:58:08.976Z,60.1
2019-03-13T07:58:58.971Z,60.3
2019-03-13T07:59:49.036Z,60.3
2019-03-13T08:00:38.802Z,60.4
2019-03-13T08:01:29.128Z,60.6
2019-03-13T08:02:19.193Z,60.7
2019-03-13T08:03:09.253Z,60.8
2019-03-13T08:03:59.330Z,60.8
2019-03-13T08:04:49.376Z,60.9
2019-03-13T08:05:39.432Z,60.9
2019-03-13T08:06:29.217Z,61.1
2019-03-13T08:07:19.271Z,61.2
2019-03-13T08:08:09.618Z,61.3
2019-03-13T08:08:59.668Z,61.4
2019-03-13T08:09:49.455Z,61.4
2019-03-13T08:10:39.878Z,61.5
2019-03-13T08:11:29.842Z,61.6
2019-03-13T08:12:19.906Z,61.7
2019-03-13T08:13:09.973Z,61.8
2019-03-13T08:14:00.085Z,61.9
2019-03-13T08:14:49.809Z,61.9
2019-03-13T08:15:40.150Z,62.1
2019-03-13T08:16:30.215Z,62.1
2019-03-13T08:17:19.987Z,62.3
2019-03-13T08:18:10.316Z,62.3
2019-03-13T08:19:00.115Z,62.1
2019-03-13T08:19:50.434Z,61.8
2019-03-13T08:20:40.270Z,61.8
2019-03-13T08:21:30.561Z,61.8
2019-03-13T08:22:20.616Z,61.7
2019-03-13T08:23:10.674Z,61.4
2019-03-13T08:24:00.835Z,61.2
2019-03-13T08:24:50.520Z,61.2
2019-03-13T08:25:40.852Z,61.4
2019-03-13T08:26:30.905Z,61.4
2019-03-13T08:27:20.969Z,61.5
2019-03-13T08:28:10.757Z,61.7
2019-03-13T08:29:01.093Z,61.6
2019-03-13T08:29:51.146Z,61.3
2019-03-13T08:30:41.320Z,60.9
2019-03-13T08:31:30.994Z,60.5
2019-03-13T08:32:21.054Z,60.3
2019-03-13T08:33:10.879Z,60.3
2019-03-13T08:34:01.484Z,60.8
2019-03-13T08:34:51.493Z,61.4
2019-03-13T08:35:41.564Z,61.8
2019-03-13T08:36:31.353Z,61.8
2019-03-13T08:37:21.739Z,61.4
2019-03-13T08:38:11.749Z,60.9
2019-03-13T08:39:01.797Z,60.5
2019-03-13T08:39:51.586Z,60.3
2019-03-13T08:40:41.361Z,60.3
2019-03-13T08:41:31.974Z,60.3
2019-03-13T08:42:22.033Z,60.2
2019-03-13T08:43:12.098Z,60.1
2019-03-13T08:44:02.151Z,59.9
2019-03-13T08:44:52.241Z,59.6
2019-03-13T08:45:41.995Z,59.5
2019-03-13T08:46:32.335Z,59.3
2019-03-13T08:47:22.161Z,59.3
2019-03-13T08:48:12.454Z,59.3
2019-03-13T08:49:02.325Z,59.4
2019-03-13T08:49:52.570Z,59.8
2019-03-13T08:50:42.375Z,59.9
2019-03-13T08:51:32.715Z,59.7
2019-03-13T08:52:22.471Z,59.4
2019-03-13T08:53:12.527Z,59.1
2019-03-13T08:54:02.880Z,58.9
2019-03-13T08:54:52.927Z,58.8
2019-03-13T08:55:42.711Z,58.8
2019-03-13T08:56:32.786Z,58.9
2019-03-13T08:57:23.097Z,59
2019-03-13T08:58:12.876Z,59.1
2019-03-13T08:59:02.986Z,59.1
2019-03-13T08:59:53.282Z,58.9
2019-03-13T09:00:43.349Z,58.9
2019-03-13T09:01:33.402Z,59.3
2019-03-13T09:02:23.449Z,59.9
2019-03-13T09:03:13.514Z,60.4
2019-03-13T09:04:03.587Z,60.8
2019-03-13T09:04:53.082Z,61.1
2019-03-13T09:05:43.441Z,61.2
2019-03-13T09:06:33.474Z,61.4
2019-03-13T09:07:23.814Z,61.5
2019-03-13T09:08:13.887Z,61.7
2019-03-13T09:09:03.669Z,61.9
2019-03-13T09:09:53.452Z,62.1
2019-03-13T09:10:43.791Z,62.3
2019-03-13T09:11:34.116Z,62.4
2019-03-13T09:12:24.184Z,62.6
2019-03-13T09:13:14.237Z,62.7
2019-03-13T09:14:04.033Z,62.8
2019-03-13T09:14:54.072Z,62.9
2019-03-13T09:15:44.141Z,63
2019-03-13T09:16:34.251Z,63.1
2019-03-13T09:17:24.528Z,63.2
2019-03-13T09:18:14.649Z,63
2019-03-13T09:19:04.648Z,62.6
2019-03-13T09:19:54.709Z,62.4
2019-03-13T09:20:44.493Z,62.4
2019-03-13T09:21:34.931Z,62.6
2019-03-13T09:22:24.897Z,62.6
2019-03-13T09:23:14.944Z,62.3
2019-03-13T09:24:05.023Z,61.9
2019-03-13T09:24:54.918Z,61.5
2019-03-13T09:25:44.863Z,61.1
2019-03-13T09:26:34.904Z,61
2019-03-13T09:27:24.963Z,60.9
2019-03-13T09:28:15.316Z,60.8
2019-03-13T09:29:05.363Z,60.6
2019-03-13T09:29:55.443Z,60.5
2019-03-13T09:30:45.591Z,60.4
2019-03-13T09:31:35.545Z,60.5
2019-03-13T09:32:25.585Z,61
2019-03-13T09:33:15.654Z,61.8
2019-03-13T09:34:05.447Z,62.3
2019-03-13T09:34:55.498Z,62.3
2019-03-13T09:35:45.826Z,61.9
2019-03-13T09:36:35.627Z,61.5
2019-03-13T09:37:25.675Z,61
2019-03-13T09:38:15.737Z,60.7
2019-03-13T09:39:06.102Z,60.6
2019-03-13T09:39:56.133Z,60.6
2019-03-13T09:40:45.907Z,60.8
2019-03-13T09:41:35.977Z,61.1
2019-03-13T09:42:26.025Z,61.5
2019-03-13T09:43:16.370Z,61.9
2019-03-13T09:44:06.435Z,62.3
2019-03-13T09:44:56.220Z,62.2
2019-03-13T09:45:46.553Z,61.8
2019-03-13T09:46:36.663Z,61.3
2019-03-13T09:47:26.399Z,60.9
2019-03-13T09:48:16.714Z,60.6
2019-03-13T09:49:06.777Z,60.6
2019-03-13T09:49:56.836Z,60.6
2019-03-13T09:50:46.632Z,60.8
2019-03-13T09:51:36.689Z,60.8
2019-03-13T09:52:27.119Z,60.8
2019-03-13T09:53:17.109Z,60.9
2019-03-13T09:54:06.944Z,61.1
2019-03-13T09:54:57.209Z,61.6
2019-03-13T09:55:47.254Z,61.7
2019-03-13T09:56:37.034Z,61.6
2019-03-13T09:57:27.371Z,61.6
2019-03-13T09:58:17.434Z,61.9
2019-03-13T09:59:07.504Z,62.3
2019-03-13T09:59:57.562Z,62.7
2019-03-13T10:00:47.349Z,63
2019-03-13T10:01:37.689Z,63.2
2019-03-13T10:02:27.456Z,63.3
2019-03-13T10:03:17.779Z,63.4
2019-03-13T10:04:07.600Z,63.5
2019-03-13T10:06:35.028Z,63.8
2019-03-13T10:07:24.822Z,64
2019-03-13T10:08:14.869Z,64.2
2019-03-13T10:09:05.193Z,64.3
2019-03-13T10:09:55.258Z,64.4
2019-03-13T10:10:45.313Z,64.5
2019-03-13T10:11:35.090Z,64.5
2019-03-13T10:12:25.437Z,64.6
2019-03-13T10:13:15.496Z,64.7
2019-03-13T10:14:05.014Z,64.9
2019-03-13T10:14:55.126Z,65.1
2019-03-13T10:15:45.403Z,65.3
2019-03-13T10:16:35.723Z,65.4
2019-03-13T10:17:25.518Z,65.4
2019-03-13T10:18:15.857Z,65.6
2019-03-13T10:19:05.633Z,65.7
2019-03-13T10:19:55.974Z,65.8
2019-03-13T10:20:45.753Z,65.9
2019-03-13T10:21:35.810Z,65.9
2019-03-13T10:22:26.138Z,66.1
2019-03-13T10:23:15.650Z,66.2
2019-03-13T10:24:06.272Z,66.3
2019-03-13T10:24:56.330Z,66.4
2019-03-13T10:25:49.696Z,66.5
2019-03-13T10:26:36.450Z,66.6
2019-03-13T10:27:26.214Z,66.6
2019-03-13T10:28:16.570Z,66.7
2019-03-13T10:29:06.612Z,66.7
2019-03-13T10:29:56.690Z,66.5
2019-03-13T10:30:46.462Z,66.4
2019-03-13T10:31:36.807Z,66.5
2019-03-13T10:32:26.862Z,66.8
2019-03-13T10:33:16.926Z,66.9
2019-03-13T10:34:06.982Z,67
2019-03-13T10:34:57.040Z,67
2019-03-13T10:35:46.815Z,67
2019-03-13T10:36:37.152Z,67.1
2019-03-13T10:37:27.217Z,67.1
2019-03-13T10:38:17.350Z,67.1
2019-03-13T10:39:07.057Z,66.8
2019-03-13T10:39:57.402Z,66.7
2019-03-13T10:40:47.446Z,66.8
2019-03-13T10:41:37.514Z,66.7
2019-03-13T10:42:27.952Z,66.6
2019-03-13T10:43:17.648Z,66.6
2019-03-13T10:44:07.696Z,66.4
2019-03-13T10:44:57.772Z,66.3
2019-03-13T10:45:47.810Z,66.3
2019-03-13T10:46:37.861Z,66.1
2019-03-13T10:47:27.931Z,65.9
2019-03-13T10:48:17.722Z,65.6
2019-03-13T10:49:08.055Z,65.6
2019-03-13T10:49:57.842Z,65.8
2019-03-13T10:50:48.166Z,65.6
2019-03-13T10:51:37.956Z,65.4
2019-03-13T10:52:28.003Z,65.4
2019-03-13T10:53:18.398Z,65.8
2019-03-13T10:54:08.403Z,66.4
2019-03-13T10:54:58.473Z,66.8
2019-03-13T10:55:48.521Z,67.1
2019-03-13T10:56:38.611Z,67.3
2019-03-13T10:57:28.640Z,67.3
2019-03-13T10:58:18.703Z,67.3
2019-03-13T10:59:08.763Z,67.4
2019-03-13T10:59:58.821Z,67.4
2019-03-13T11:00:49.065Z,67.6
2019-03-13T11:01:38.935Z,67.6
2019-03-13T11:02:28.725Z,67.8
2019-03-13T11:03:19.050Z,67.8
2019-03-13T11:04:09.114Z,67.9
2019-03-13T11:04:59.187Z,68
2019-03-13T11:05:48.975Z,68.1
2019-03-13T11:06:38.755Z,68.1
2019-03-13T11:07:30.454Z,68.2
2019-03-13T11:08:19.128Z,68.3
2019-03-13T11:09:09.479Z,68.3
2019-03-13T11:09:59.535Z,68.3
2019-03-13T11:10:49.035Z,68.4
2019-03-13T11:11:39.650Z,68.4
2019-03-13T11:12:29.422Z,68.5
2019-03-13T11:13:19.812Z,68.5
2019-03-13T11:14:17.267Z,68.3
2019-03-13T11:14:59.882Z,68.2
2019-03-13T11:15:49.948Z,68.2
2019-03-13T11:16:39.997Z,68.4
2019-03-13T11:17:30.092Z,68.6
2019-03-13T11:18:19.931Z,68.8
2019-03-13T11:19:09.639Z,68.8
2019-03-13T11:20:00.467Z,68.9
2019-03-13T11:20:50.017Z,68.8
2019-03-13T11:21:40.137Z,68.8
2019-03-13T11:22:30.422Z,68.8
2019-03-13T11:23:20.257Z,68.9
2019-03-13T11:24:10.539Z,69
2019-03-13T11:25:00.859Z,69.1
2019-03-13T11:25:50.462Z,69.1
2019-03-13T11:26:40.706Z,69.1
2019-03-13T11:27:30.499Z,69
2019-03-13T11:28:20.834Z,69.1